Time;durP1;ratioP1;P1;durP2;ratioP2;P2;SDS_P1;SDS_P2;PMS_P1;PMS_P2;Temp;Humidity;BMP_temperature;BMP_pressure;BME280_temperature;BME280_humidity;BME280_pressure;Samples;Min_cycle;Max_cycle;Signal;HPM_P1;HPM_P2
2021/09/04 00:01:43;;;;;;;19.65;15.73;;;22.90;98.70;;;;;;4860067;29;20042;-83
2021/09/04 00:04:08;;;;;;;24.02;17.45;;;22.90;98.70;;;;;;4829217;29;20470;-82
2021/09/04 00:06:34;;;;;;;19.83;16.38;;;22.90;98.60;;;;;;4844335;29;20061;-82
2021/09/04 00:09:01;;;;;;;22.25;16.40;;;22.90;98.60;;;;;;4843727;29;20437;-83
2021/09/04 00:11:27;;;;;;;20.88;16.65;;;22.90;98.60;;;;;;4860513;29;20408;-83
2021/09/04 00:13:52;;;;;;;22.10;17.70;;;22.90;98.80;;;;;;4844048;29;20045;-83
2021/09/04 00:16:18;;;;;;;22.67;17.30;;;22.90;98.60;;;;;;4844083;29;20057;-83
2021/09/04 00:18:44;;;;;;;20.10;16.23;;;22.90;98.60;;;;;;4843897;29;20109;-84
2021/09/04 00:21:09;;;;;;;21.92;16.48;;;22.90;98.60;;;;;;4844081;29;20532;-83
2021/09/04 00:23:35;;;;;;;20.60;16.48;;;22.90;98.60;;;;;;4844006;29;20045;-83
2021/09/04 00:26:01;;;;;;;20.42;15.30;;;22.90;98.60;;;;;;4860564;29;20049;-83
2021/09/04 00:28:28;;;;;;;21.65;15.45;;;22.90;98.60;;;;;;4844083;29;20491;-83
2021/09/04 00:30:53;;;;;;;20.75;15.70;;;22.90;98.60;;;;;;4829005;29;20034;-83
2021/09/04 00:33:19;;;;;;;20.88;15.90;;;22.80;98.60;;;;;;4860979;29;20047;-84
2021/09/04 00:35:45;;;;;;;20.05;15.63;;;22.80;98.60;;;;;;4843782;29;20034;-86
2021/09/04 00:38:11;;;;;;;20.52;15.55;;;22.80;98.60;;;;;;4828841;29;20075;-83
2021/09/04 00:40:37;;;;;;;20.20;16.92;;;22.80;98.60;;;;;;4860238;29;20033;-83
2021/09/04 00:43:02;;;;;;;19.42;16.10;;;22.80;98.60;;;;;;4860735;29;20594;-82
2021/09/04 00:45:28;;;;;;;16.25;14.35;;;22.80;98.60;;;;;;4864128;29;20528;-83
2021/09/04 00:48:02;;;;;;;23.25;15.93;;;22.80;98.60;;;;;;4864204;29;20369;-85
2021/09/04 00:50:29;;;;;;;20.15;15.70;;;22.80;98.60;;;;;;4847754;29;20037;-83
2021/09/04 00:52:56;;;;;;;18.52;15.20;;;22.80;98.60;;;;;;4847297;29;20061;-84
2021/09/04 00:55:22;;;;;;;19.92;15.57;;;22.80;98.60;;;;;;4863907;29;20061;-84
2021/09/04 00:57:48;;;;;;;19.77;15.77;;;22.80;98.60;;;;;;4863794;29;20040;-84
2021/09/04 01:00:15;;;;;;;18.42;14.93;;;22.80;98.60;;;;;;4847398;29;20459;-84
2021/09/04 01:02:41;;;;;;;23.77;16.70;;;22.80;98.60;;;;;;4863806;29;20075;-84
2021/09/04 01:05:07;;;;;;;21.55;15.68;;;22.80;98.60;;;;;;4831584;29;20057;-83
2021/09/04 01:07:34;;;;;;;21.27;16.23;;;22.80;98.60;;;;;;4846885;29;20034;-84
2021/09/04 01:10:00;;;;;;;19.42;15.73;;;22.90;98.60;;;;;;4863824;29;20581;-84
2021/09/04 01:12:26;;;;;;;21.83;15.43;;;22.90;98.60;;;;;;4863692;29;20052;-85
2021/09/04 01:14:52;;;;;;;18.75;15.68;;;22.90;98.60;;;;;;4846788;29;20038;-84
2021/09/04 01:17:18;;;;;;;22.08;16.92;;;22.90;98.60;;;;;;4863665;29;20029;-84
2021/09/04 01:19:44;;;;;;;22.08;16.23;;;22.90;98.60;;;;;;4846880;29;20029;-85
2021/09/04 01:22:09;;;;;;;21.90;15.90;;;22.80;98.50;;;;;;4846617;29;20046;-83
2021/09/04 01:24:35;;;;;;;18.63;15.50;;;22.90;98.50;;;;;;4862922;29;20057;-83
2021/09/04 01:27:01;;;;;;;19.23;15.35;;;22.90;98.50;;;;;;4846338;29;20061;-83
2021/09/04 01:29:27;;;;;;;19.23;15.82;;;22.90;98.50;;;;;;4846674;29;20041;-83
2021/09/04 01:31:53;;;;;;;20.15;15.73;;;22.80;98.50;;;;;;4862573;29;20496;-84
2021/09/04 01:34:18;;;;;;;19.42;15.57;;;22.80;98.50;;;;;;4816261;29;20154;-83
2021/09/04 01:36:44;;;;;;;19.67;15.25;;;22.80;98.40;;;;;;4846705;29;20464;-83
2021/09/04 01:39:11;;;;;;;19.83;15.45;;;22.80;98.50;;;;;;4830825;29;20445;-84
2021/09/04 01:41:40;;;;;;;19.67;15.05;;;22.80;98.50;;;;;;4862915;29;20121;-83
2021/09/04 01:44:06;;;;;;;18.63;14.68;;;22.80;98.50;;;;;;4862446;29;20026;-83
2021/09/04 01:46:34;;;;;;;18.73;14.80;;;22.80;98.50;;;;;;4846405;29;20531;-83
2021/09/04 01:49:00;;;;;;;19.10;14.73;;;22.80;98.50;;;;;;4845891;29;20124;-84
2021/09/04 01:51:25;;;;;;;18.70;14.93;;;22.80;98.50;;;;;;4846157;29;20030;-84
2021/09/04 01:53:51;;;;;;;17.67;13.38;;;22.80;98.50;;;;;;4846280;29;20086;-83
2021/09/04 01:56:17;;;;;;;17.75;14.15;;;22.80;98.50;;;;;;4862289;29;20034;-84
2021/09/04 01:58:43;;;;;;;19.30;15.32;;;22.80;98.50;;;;;;4846584;29;20120;-82
2021/09/04 02:01:09;;;;;;;19.00;14.25;;;22.80;98.50;;;;;;4830383;29;20121;-83
2021/09/04 02:03:35;;;;;;;17.02;14.38;;;22.80;98.60;;;;;;4830837;29;20034;-83
2021/09/04 02:06:05;;;;;;;18.15;15.02;;;22.80;98.50;;;;;;4815471;29;20034;-84
2021/09/04 02:08:32;;;;;;;18.60;15.05;;;22.80;98.50;;;;;;4862267;29;20062;-84
2021/09/04 02:10:58;;;;;;;19.30;14.65;;;22.80;98.50;;;;;;4845624;29;20080;-85
2021/09/04 02:13:24;;;;;;;18.75;14.77;;;22.80;98.50;;;;;;4845840;29;20124;-84
2021/09/04 02:15:50;;;;;;;18.40;14.82;;;22.80;98.50;;;;;;4862423;29;20033;-84
2021/09/04 02:18:16;;;;;;;21.70;15.23;;;22.80;98.50;;;;;;4845664;29;20793;-83
2021/09/04 02:20:42;;;;;;;19.77;15.73;;;22.80;98.50;;;;;;4862402;29;20144;-82
2021/09/04 02:23:08;;;;;;;20.80;15.85;;;22.80;98.60;;;;;;4845280;29;20452;-83
2021/09/04 02:25:35;;;;;;;17.83;14.68;;;22.80;98.60;;;;;;4830145;29;20133;-82
2021/09/04 02:28:02;;;;;;;20.30;15.57;;;22.90;98.60;;;;;;4830357;29;20061;-84
2021/09/04 02:30:27;;;;;;;21.05;15.93;;;22.90;98.60;;;;;;4845477;29;20030;-84
2021/09/04 02:32:53;;;;;;;18.65;15.27;;;22.90;98.60;;;;;;4862132;29;20105;-84
2021/09/04 02:35:18;;;;;;;20.17;15.10;;;22.90;98.60;;;;;;4845005;29;20064;-83
2021/09/04 02:37:44;;;;;;;18.65;15.45;;;22.90;98.60;;;;;;4845678;29;20029;-84
2021/09/04 02:40:10;;;;;;;20.38;16.55;;;22.90;98.60;;;;;;4830459;29;20082;-84
2021/09/04 02:42:36;;;;;;;21.60;15.32;;;22.90;98.60;;;;;;4861831;29;20385;-83
2021/09/04 02:45:02;;;;;;;20.00;15.40;;;22.90;98.60;;;;;;4844857;29;20373;-85
2021/09/04 02:47:27;;;;;;;18.52;14.65;;;22.90;98.60;;;;;;4845539;29;20033;-85
2021/09/04 02:49:53;;;;;;;19.92;15.57;;;22.90;98.60;;;;;;4845009;29;20484;-84
2021/09/04 02:52:19;;;;;;;18.50;16.02;;;22.90;98.60;;;;;;4844841;29;20048;-84
2021/09/04 02:54:44;;;;;;;19.58;15.23;;;22.90;98.60;;;;;;4845267;29;20476;-84
2021/09/04 02:57:10;;;;;;;20.23;15.80;;;22.90;98.60;;;;;;4861498;29;20040;-84
2021/09/04 02:59:36;;;;;;;20.35;15.50;;;22.90;98.60;;;;;;4861549;29;20045;-84
2021/09/04 03:02:01;;;;;;;20.13;15.35;;;22.90;98.60;;;;;;4861367;29;20143;-87
2021/09/04 03:04:27;;;;;;;21.85;15.93;;;22.80;98.60;;;;;;4830020;29;20076;-84
2021/09/04 03:06:53;;;;;;;19.38;15.25;;;22.90;98.60;;;;;;4829414;29;20030;-83
2021/09/04 03:09:18;;;;;;;19.95;15.15;;;22.90;98.60;;;;;;4844887;29;20042;-83
2021/09/04 03:11:44;;;;;;;19.30;14.70;;;22.80;98.60;;;;;;4844764;29;20090;-83
2021/09/04 03:14:09;;;;;;;19.73;15.95;;;22.80;98.60;;;;;;4844383;29;20448;-84
2021/09/04 03:16:35;;;;;;;19.25;15.13;;;22.80;98.60;;;;;;4844517;29;20037;-83
2021/09/04 03:19:01;;;;;;;20.92;16.30;;;22.90;98.60;;;;;;4829224;29;20061;-83
2021/09/04 03:21:27;;;;;;;18.77;15.77;;;22.90;98.60;;;;;;4860916;29;20469;-83
2021/09/04 03:23:53;;;;;;;20.95;15.80;;;22.80;98.60;;;;;;4844564;29;20090;-83
2021/09/04 03:26:19;;;;;;;20.15;16.00;;;22.90;98.60;;;;;;4860787;29;20050;-83
2021/09/04 03:28:44;;;;;;;20.42;16.23;;;22.90;98.60;;;;;;4844505;29;20101;-83
2021/09/04 03:31:10;;;;;;;19.30;15.68;;;22.80;98.50;;;;;;4844074;29;20533;-84
2021/09/04 03:33:35;;;;;;;18.63;15.57;;;22.80;98.50;;;;;;4829837;29;20038;-84
2021/09/04 03:36:03;;;;;;;18.73;14.50;;;22.80;98.60;;;;;;4860865;29;20396;-84
2021/09/04 03:38:28;;;;;;;18.73;14.35;;;22.80;98.50;;;;;;4844057;29;20089;-84
2021/09/04 03:40:54;;;;;;;18.30;14.07;;;22.80;98.50;;;;;;4860665;29;20033;-83
2021/09/04 03:43:20;;;;;;;19.55;15.30;;;22.80;98.50;;;;;;4828826;29;20072;-84
2021/09/04 03:45:45;;;;;;;20.20;14.88;;;22.80;98.60;;;;;;4844151;29;20465;-83
2021/09/04 03:48:11;;;;;;;20.48;15.48;;;22.80;98.60;;;;;;4813646;29;20085;-84
2021/09/04 03:50:37;;;;;;;17.08;14.07;;;22.80;98.60;;;;;;4844606;29;20170;-84
2021/09/04 03:53:02;;;;;;;18.23;14.75;;;22.80;98.60;;;;;;4829201;29;20495;-83
2021/09/04 03:55:28;;;;;;;18.45;13.90;;;22.80;98.50;;;;;;4860418;29;20033;-84
2021/09/04 03:57:54;;;;;;;17.58;14.60;;;22.80;98.50;;;;;;4843997;29;20388;-84
2021/09/04 04:00:19;;;;;;;17.88;14.48;;;22.80;98.50;;;;;;4843902;29;20550;-84
2021/09/04 04:02:45;;;;;;;18.75;14.63;;;22.80;98.50;;;;;;4844094;29;20049;-84
2021/09/04 04:05:11;;;;;;;16.42;14.25;;;22.80;98.50;;;;;;4860318;29;20033;-85
2021/09/04 04:07:37;;;;;;;20.42;15.68;;;22.80;98.50;;;;;;4860433;29;20120;-84
2021/09/04 04:10:06;;;;;;;18.65;14.95;;;22.80;98.50;;;;;;4828958;29;20033;-84
2021/09/04 04:12:32;;;;;;;19.08;14.43;;;22.80;98.60;;;;;;4843777;29;20098;-85
2021/09/04 04:14:58;;;;;;;19.17;15.15;;;22.80;98.60;;;;;;4844426;29;20116;-85
2021/09/04 04:17:24;;;;;;;16.00;14.15;;;22.80;98.50;;;;;;4860175;29;20125;-84
2021/09/04 04:19:49;;;;;;;18.33;14.95;;;22.80;98.50;;;;;;4864267;29;20042;-84
2021/09/04 04:22:15;;;;;;;17.33;13.73;;;22.80;98.60;;;;;;4864004;29;20476;-84
2021/09/04 04:24:41;;;;;;;18.00;14.80;;;22.80;98.60;;;;;;4832276;29;20057;-84
2021/09/04 04:27:07;;;;;;;18.13;13.98;;;22.90;98.60;;;;;;4832420;29;20037;-82
2021/09/04 04:29:32;;;;;;;17.52;13.38;;;22.90;98.60;;;;;;4864044;29;20116;-83
2021/09/04 04:31:58;;;;;;;20.40;15.82;;;22.80;98.50;;;;;;4847742;29;20120;-84
2021/09/04 04:34:24;;;;;;;19.95;15.50;;;22.80;98.50;;;;;;4847388;29;20038;-83
2021/09/04 04:36:50;;;;;;;17.58;15.02;;;22.90;98.50;;;;;;4863815;29;20041;-83
2021/09/04 04:39:15;;;;;;;18.88;15.25;;;22.90;98.50;;;;;;4863807;29;20483;-84
2021/09/04 04:41:41;;;;;;;18.08;14.90;;;22.90;98.50;;;;;;4832306;29;20050;-83
2021/09/04 04:44:07;;;;;;;20.98;14.52;;;22.80;98.50;;;;;;4847361;29;20473;-83
2021/09/04 04:46:32;;;;;;;16.85;13.63;;;22.80;98.50;;;;;;4863629;29;20468;-83
2021/09/04 04:48:58;;;;;;;20.13;15.35;;;22.90;98.50;;;;;;4816778;29;20533;-83
2021/09/04 04:51:24;;;;;;;17.80;14.45;;;22.90;98.50;;;;;;4831523;29;20033;-84
2021/09/04 04:53:49;;;;;;;17.55;14.13;;;22.90;98.50;;;;;;4847365;29;20034;-82
2021/09/04 04:56:15;;;;;;;17.52;13.68;;;22.90;98.50;;;;;;4846706;29;20037;-84
2021/09/04 04:58:41;;;;;;;16.92;13.85;;;22.90;98.50;;;;;;4847664;29;20142;-83
2021/09/04 05:01:06;;;;;;;18.05;14.23;;;22.80;98.40;;;;;;4863640;29;20101;-84
2021/09/04 05:03:32;;;;;;;17.45;14.15;;;22.80;98.40;;;;;;4863227;29;20082;-83
2021/09/04 05:05:59;;;;;;;18.48;14.57;;;22.80;98.40;;;;;;4863333;29;20036;-83
2021/09/04 05:08:26;;;;;;;17.15;13.60;;;22.80;98.30;;;;;;4863002;29;20381;-84
2021/09/04 05:10:51;;;;;;;17.48;13.43;;;22.80;98.30;;;;;;4846555;29;20084;-83
2021/09/04 05:13:17;;;;;;;17.17;13.88;;;22.80;98.30;;;;;;4831383;29;20473;-83
2021/09/04 05:15:43;;;;;;;16.23;13.02;;;22.80;98.50;;;;;;4846738;29;20029;-83
2021/09/04 05:18:12;;;;;;;16.45;13.63;;;22.80;98.30;;;;;;4846893;29;20094;-82
2021/09/04 05:20:38;;;;;;;15.98;13.38;;;22.80;98.30;;;;;;4831412;29;20461;-83
2021/09/04 05:23:03;;;;;;;17.58;13.43;;;22.80;98.30;;;;;;4863171;29;20101;-82
2021/09/04 05:25:29;;;;;;;18.38;13.27;;;22.80;98.30;;;;;;4846209;29;20511;-84
2021/09/04 05:27:55;;;;;;;15.38;12.75;;;22.80;98.30;;;;;;4846498;29;20089;-84
2021/09/04 05:30:20;;;;;;;16.67;13.75;;;22.80;98.30;;;;;;4845961;29;20086;-83
2021/09/04 05:32:46;;;;;;;15.85;12.65;;;22.80;98.30;;;;;;4831373;29;20038;-82
2021/09/04 05:35:12;;;;;;;15.90;12.93;;;22.80;98.30;;;;;;4863307;29;20065;-83
2021/09/04 05:37:37;;;;;;;15.73;12.52;;;22.80;98.40;;;;;;4831280;29;20758;-83
2021/09/04 05:40:04;;;;;;;16.30;12.35;;;22.80;98.40;;;;;;4831425;29;20599;-84
2021/09/04 05:42:30;;;;;;;16.08;12.85;;;22.90;98.40;;;;;;4846156;29;20045;-84
2021/09/04 05:44:55;;;;;;;15.02;12.57;;;22.90;98.40;;;;;;4846756;29;20105;-84
2021/09/04 05:47:21;;;;;;;15.05;12.75;;;22.90;98.40;;;;;;4862739;29;20113;-85
2021/09/04 05:49:46;;;;;;;13.75;11.68;;;22.80;98.40;;;;;;4846493;29;20591;-84
2021/09/04 05:52:12;;;;;;;14.20;12.07;;;22.80;98.40;;;;;;4863818;29;20142;-84
2021/09/04 05:54:38;;;;;;;15.32;12.73;;;22.90;98.40;;;;;;4863926;29;20042;-84
2021/09/04 05:57:03;;;;;;;17.30;13.30;;;22.80;98.30;;;;;;4831117;29;20128;-82
2021/09/04 05:59:29;;;;;;;15.32;12.07;;;22.80;98.30;;;;;;4846054;29;20396;-82
2021/09/04 06:01:55;;;;;;;14.57;12.45;;;22.80;98.30;;;;;;4846343;29;20037;-83
2021/09/04 06:04:20;;;;;;;15.60;11.90;;;22.80;98.20;;;;;;4862714;29;20464;-85
2021/09/04 06:06:46;;;;;;;15.38;12.07;;;22.80;98.20;;;;;;4815707;29;20034;-84
2021/09/04 06:09:12;;;;;;;15.27;11.85;;;22.80;98.20;;;;;;4846273;29;20041;-83
2021/09/04 06:11:38;;;;;;;16.38;12.80;;;22.80;98.20;;;;;;4845553;29;20409;-83
2021/09/04 06:14:05;;;;;;;16.38;13.00;;;22.80;98.20;;;;;;4830385;29;20042;-82
2021/09/04 06:16:31;;;;;;;16.48;13.40;;;22.80;98.20;;;;;;4845858;29;20036;-83
2021/09/04 06:18:57;;;;;;;16.80;13.27;;;22.80;98.10;;;;;;4846039;29;20034;-85
2021/09/04 06:21:22;;;;;;;15.98;12.63;;;22.80;98.10;;;;;;4845196;29;20416;-87
2021/09/04 06:24:25;;;;;;;20.65;14.25;;;22.80;98.10;;;;;;4845176;29;20065;-84
2021/09/04 06:26:51;;;;;;;17.45;13.98;;;22.80;98.10;;;;;;4843946;29;20050;-85
2021/09/04 06:29:17;;;;;;;18.83;14.68;;;22.80;98.10;;;;;;4827127;29;20063;-85
2021/09/04 06:31:42;;;;;;;21.08;17.13;;;22.80;98.10;;;;;;4826621;29;20851;-85
2021/09/04 06:34:08;;;;;;;24.25;17.60;;;22.80;98.10;;;;;;4826253;29;20089;-85
2021/09/04 06:36:34;;;;;;;24.00;17.77;;;22.80;98.10;;;;;;4827246;29;20041;-85
2021/09/04 06:38:59;;;;;;;24.15;19.85;;;22.80;98.10;;;;;;4811452;29;20034;-84
2021/09/04 06:41:25;;;;;;;24.38;19.65;;;22.80;98.10;;;;;;4810759;29;20037;-86
2021/09/04 06:43:51;;;;;;;25.88;20.10;;;22.80;98.10;;;;;;4843294;29;20457;-84
2021/09/04 06:46:19;;;;;;;28.00;21.30;;;22.80;98.10;;;;;;4843176;29;20089;-84
2021/09/04 06:48:44;;;;;;;24.77;20.25;;;22.80;98.20;;;;;;4826731;29;20073;-87
2021/09/04 06:51:10;;;;;;;28.02;20.98;;;22.80;98.10;;;;;;4827429;29;20030;-87
2021/09/04 06:53:36;;;;;;;27.02;20.58;;;22.80;98.10;;;;;;4824951;29;20489;-84
2021/09/04 06:56:01;;;;;;;26.38;20.48;;;22.80;98.10;;;;;;4845041;29;20481;-84
2021/09/04 06:58:27;;;;;;;29.08;21.25;;;22.80;98.10;;;;;;4844455;29;20033;-84
2021/09/04 07:00:57;;;;;;;25.92;19.58;;;22.80;98.00;;;;;;4829933;29;20125;-83
2021/09/04 07:03:23;;;;;;;27.10;20.77;;;22.80;98.00;;;;;;4843861;29;20194;-83
2021/09/04 07:05:49;;;;;;;28.50;21.80;;;22.80;98.00;;;;;;4861659;29;20077;-85
2021/09/04 07:08:15;;;;;;;29.83;21.67;;;22.80;98.00;;;;;;4861505;29;20041;-84
2021/09/04 07:10:41;;;;;;;26.20;21.15;;;22.80;97.90;;;;;;4844971;29;20034;-85
2021/09/04 07:13:07;;;;;;;27.35;22.05;;;22.80;97.90;;;;;;4829652;29;20094;-84
2021/09/04 07:15:33;;;;;;;29.15;22.02;;;22.80;97.90;;;;;;4861233;29;20391;-84
2021/09/04 07:17:58;;;;;;;27.85;21.60;;;22.80;97.90;;;;;;4844282;29;20550;-84
2021/09/04 07:20:24;;;;;;;26.85;21.42;;;22.80;97.90;;;;;;4843626;29;20038;-84
2021/09/04 07:22:50;;;;;;;28.60;20.70;;;22.80;97.90;;;;;;4859517;29;20038;-84
2021/09/04 07:25:16;;;;;;;24.73;19.90;;;22.80;97.90;;;;;;4844002;29;20516;-84
2021/09/04 07:27:43;;;;;;;26.25;20.83;;;22.90;97.90;;;;;;4844258;29;20033;-83
2021/09/04 07:30:09;;;;;;;27.88;20.92;;;22.80;97.80;;;;;;4829696;29;20408;-83
2021/09/04 07:32:35;;;;;;;25.98;20.48;;;22.90;97.80;;;;;;4829194;29;20033;-84
2021/09/04 07:35:01;;;;;;;25.00;19.85;;;22.80;97.80;;;;;;4829800;29;20057;-83
2021/09/04 07:37:26;;;;;;;25.55;20.27;;;22.80;97.80;;;;;;4844319;29;20041;-82
2021/09/04 07:39:52;;;;;;;26.05;19.95;;;22.80;97.80;;;;;;4844046;29;20128;-83
2021/09/04 07:42:18;;;;;;;24.83;19.77;;;22.80;97.80;;;;;;4844400;29;20037;-82
2021/09/04 07:44:44;;;;;;;25.42;18.98;;;22.90;97.80;;;;;;4828915;29;20033;-83
2021/09/04 07:47:10;;;;;;;24.92;18.75;;;22.80;97.70;;;;;;4829346;29;20044;-82
2021/09/04 07:49:35;;;;;;;22.92;18.63;;;22.90;97.70;;;;;;4860805;29;20042;-83
2021/09/04 07:52:01;;;;;;;24.30;19.02;;;22.90;97.70;;;;;;4844338;29;20045;-82
2021/09/04 07:54:27;;;;;;;21.63;17.77;;;22.90;97.60;;;;;;4844137;29;20036;-82
2021/09/04 07:56:53;;;;;;;22.83;17.17;;;22.90;97.60;;;;;;4844150;29;20045;-82
2021/09/04 07:59:18;;;;;;;21.27;17.15;;;22.90;97.60;;;;;;4860988;29;20038;-83
2021/09/04 08:01:44;;;;;;;23.17;17.98;;;22.80;97.50;;;;;;4843841;29;20045;-82
2021/09/04 08:04:09;;;;;;;21.65;17.13;;;22.90;97.50;;;;;;4844354;29;20491;-82
2021/09/04 08:06:35;;;;;;;21.08;16.77;;;22.90;97.50;;;;;;4860637;29;20045;-82
2021/09/04 08:09:01;;;;;;;20.38;15.95;;;22.80;97.40;;;;;;4861047;29;20528;-82
2021/09/04 08:11:26;;;;;;;19.80;15.57;;;22.90;97.40;;;;;;4844826;29;20030;-82
2021/09/04 08:13:52;;;;;;;16.98;14.45;;;22.90;97.40;;;;;;4844452;29;20034;-82
2021/09/04 08:16:18;;;;;;;17.38;14.80;;;22.90;97.40;;;;;;4862555;29;20097;-82
2021/09/04 08:18:43;;;;;;;17.27;14.23;;;22.90;97.30;;;;;;4861216;29;20473;-83
2021/09/04 08:21:09;;;;;;;19.08;14.82;;;22.90;97.30;;;;;;4844057;29;20396;-82
2021/09/04 08:23:35;;;;;;;18.15;14.13;;;22.90;97.30;;;;;;4860870;29;20029;-81
2021/09/04 08:26:00;;;;;;;18.30;14.07;;;22.90;97.30;;;;;;4843969;29;20049;-82
2021/09/04 08:28:26;;;;;;;16.15;12.98;;;22.80;97.30;;;;;;4844438;29;20034;-83
2021/09/04 08:30:52;;;;;;;16.85;13.45;;;22.90;97.30;;;;;;4828780;29;20476;-83
2021/09/04 08:33:18;;;;;;;15.48;12.30;;;22.80;97.20;;;;;;4860469;29;20057;-82
2021/09/04 08:35:44;;;;;;;16.10;12.55;;;22.80;97.20;;;;;;4844066;29;20032;-83
2021/09/04 08:38:10;;;;;;;15.80;12.52;;;22.90;97.30;;;;;;4843999;29;20030;-84
2021/09/04 08:40:40;;;;;;;16.92;12.43;;;22.90;97.30;;;;;;4828819;29;20036;-82
2021/09/04 08:43:07;;;;;;;16.15;12.48;;;22.90;97.20;;;;;;4860296;29;20403;-82
2021/09/04 08:45:32;;;;;;;14.90;12.35;;;22.90;97.20;;;;;;4844015;29;20065;-82
2021/09/04 08:48:00;;;;;;;14.93;12.02;;;22.90;97.20;;;;;;4843648;29;20105;-82
2021/09/04 08:50:26;;;;;;;16.35;11.18;;;22.90;97.10;;;;;;4860371;29;20040;-82
2021/09/04 08:52:53;;;;;;;12.75;10.77;;;22.90;97.10;;;;;;4843621;29;20037;-82
2021/09/04 08:55:18;;;;;;;12.77;10.27;;;22.90;97.10;;;;;;4860645;29;20037;-81
2021/09/04 08:57:45;;;;;;;14.25;11.25;;;22.90;97.00;;;;;;4860148;29;20077;-83
2021/09/04 09:00:11;;;;;;;13.25;10.93;;;22.90;97.00;;;;;;4843895;29;20041;-82
2021/09/04 09:02:37;;;;;;;11.70;9.52;;;22.90;97.00;;;;;;4844065;29;20116;-83
2021/09/04 09:05:08;;;;;;;11.65;10.05;;;22.90;97.00;;;;;;4830531;29;20041;-83
2021/09/04 09:07:41;;;;;;;11.93;9.63;;;22.90;96.90;;;;;;4863737;29;20036;-83
2021/09/04 09:10:21;;;;;;;14.05;10.23;;;22.90;96.90;;;;;;4863467;29;20030;-82
2021/09/04 09:12:47;;;;;;;11.60;9.48;;;22.90;96.90;;;;;;4863458;29;20066;-84
2021/09/04 09:15:20;;;;;;;13.23;9.85;;;22.90;96.90;;;;;;4846995;29;20501;-83
2021/09/04 09:18:10;;;;;;;9.45;8.15;;;22.90;97.00;;;;;;4846746;29;20034;-83
2021/09/04 09:20:37;;;;;;;10.55;8.27;;;22.90;97.00;;;;;;4863573;29;20116;-84
2021/09/04 09:23:07;;;;;;;11.85;8.77;;;22.90;97.00;;;;;;4846475;29;20050;-82
2021/09/04 09:25:34;;;;;;;11.15;8.68;;;22.90;97.00;;;;;;4846530;29;20114;-83
2021/09/04 09:28:12;;;;;;;10.82;8.38;;;22.90;97.00;;;;;;4863001;29;20473;-83
2021/09/04 09:30:50;;;;;;;11.15;8.10;;;22.90;97.00;;;;;;4863147;29;20116;-83
2021/09/04 09:33:27;;;;;;;9.70;8.23;;;23.00;97.00;;;;;;4846813;29;20412;-82
2021/09/04 09:36:01;;;;;;;10.50;8.27;;;23.00;96.90;;;;;;4846623;29;20120;-83
2021/09/04 09:38:32;;;;;;;9.57;8.43;;;23.00;96.80;;;;;;4863256;29;20033;-83
2021/09/04 09:40:59;;;;;;;9.60;7.88;;;23.00;96.80;;;;;;4862673;29;20141;-83
2021/09/04 09:43:29;;;;;;;10.00;7.72;;;23.00;96.80;;;;;;4846482;29;20400;-83
2021/09/04 09:46:07;;;;;;;9.15;7.47;;;23.00;96.80;;;;;;4862896;29;20029;-82
2021/09/04 09:48:36;;;;;;;10.00;8.25;;;23.00;96.80;;;;;;4846695;29;20125;-83
2021/09/04 09:51:40;;;;;;;8.32;7.13;;;23.00;96.70;;;;;;4846113;29;20037;-81
2021/09/04 09:54:07;;;;;;;10.35;8.23;;;23.00;96.80;;;;;;4846194;29;20048;-83
2021/09/04 09:56:34;;;;;;;8.48;7.20;;;23.00;96.70;;;;;;4831383;29;20038;-83
2021/09/04 09:58:59;;;;;;;8.65;7.30;;;23.00;96.70;;;;;;4845909;29;20093;-83
2021/09/04 10:01:26;;;;;;;9.88;7.18;;;23.00;96.70;;;;;;4846046;29;20108;-83
2021/09/04 10:03:54;;;;;;;9.95;6.82;;;23.00;96.70;;;;;;4846010;29;20043;-81
2021/09/04 10:06:20;;;;;;;8.23;7.18;;;23.00;96.70;;;;;;4846394;29;20361;-82
2021/09/04 10:08:46;;;;;;;9.10;6.60;;;23.00;96.70;;;;;;4846033;29;20048;-82
2021/09/04 10:11:12;;;;;;;7.35;6.43;;;23.00;96.70;;;;;;4862215;29;20056;-82
2021/09/04 10:13:37;;;;;;;8.00;6.40;;;23.00;96.70;;;;;;4846431;29;20464;-82
2021/09/04 10:16:05;;;;;;;8.40;7.07;;;23.00;96.70;;;;;;4862581;29;20026;-83
2021/09/04 10:18:31;;;;;;;8.63;6.15;;;23.00;96.70;;;;;;4862292;29;20037;-82
2021/09/04 10:21:11;;;;;;;7.05;6.15;;;23.00;96.70;;;;;;4830796;29;20066;-83
2021/09/04 10:23:49;;;;;;;8.88;6.45;;;23.00;96.60;;;;;;4862330;29;20098;-83
2021/09/04 10:26:28;;;;;;;6.45;5.47;;;23.00;96.60;;;;;;4845478;29;20053;-83
2021/09/04 10:29:12;;;;;;;7.05;5.90;;;23.00;96.70;;;;;;4845934;29;20025;-83
2021/09/04 10:31:54;;;;;;;11.02;6.70;;;23.00;96.60;;;;;;4846228;29;20392;-84
2021/09/04 10:34:37;;;;;;;9.13;6.63;;;23.10;96.60;;;;;;4863753;29;20034;-83
2021/09/04 10:37:16;;;;;;;6.80;5.60;;;23.00;96.50;;;;;;4848350;29;20033;-83
2021/09/04 10:39:48;;;;;;;7.07;5.88;;;23.10;96.50;;;;;;4864128;29;20528;-82
2021/09/04 10:42:17;;;;;;;7.97;6.28;;;23.10;96.50;;;;;;4867341;29;20059;-83
2021/09/04 10:44:48;;;;;;;6.40;5.80;;;23.00;96.40;;;;;;4862705;29;20030;-83
2021/09/04 10:47:15;;;;;;;6.55;5.70;;;23.00;96.40;;;;;;4862135;29;20025;-82
2021/09/04 10:49:48;;;;;;;7.28;5.90;;;23.00;96.50;;;;;;4845345;29;20036;-83
2021/09/04 10:52:14;;;;;;;6.68;5.53;;;23.10;96.50;;;;;;4861825;29;20033;-83
2021/09/04 10:54:58;;;;;;;7.65;5.80;;;23.10;96.50;;;;;;4830247;29;20125;-83
2021/09/04 10:57:24;;;;;;;7.33;6.03;;;23.10;96.50;;;;;;4862000;29;20037;-82
2021/09/04 10:59:57;;;;;;;6.82;5.68;;;23.10;96.50;;;;;;4861721;29;20270;-83
2021/09/04 11:02:23;;;;;;;7.85;6.45;;;23.10;96.60;;;;;;4861477;29;20093;-82
2021/09/04 11:04:55;;;;;;;7.25;6.47;;;23.10;96.60;;;;;;4845249;29;20418;-82
2021/09/04 11:07:44;;;;;;;8.27;5.97;;;23.10;96.60;;;;;;4830032;29;20437;-82
2021/09/04 11:10:24;;;;;;;7.80;6.30;;;23.10;96.50;;;;;;4861673;29;20469;-83
2021/09/04 11:13:12;;;;;;;7.60;6.45;;;23.10;96.50;;;;;;4861620;29;20037;-82
2021/09/04 11:15:43;;;;;;;7.30;6.22;;;23.10;96.50;;;;;;4844755;29;20036;-83
2021/09/04 11:18:10;;;;;;;6.18;5.53;;;23.10;96.50;;;;;;4861096;29;20030;-81
2021/09/04 11:20:50;;;;;;;6.82;5.90;;;23.10;96.40;;;;;;4844898;29;20431;-81
2021/09/04 11:23:26;;;;;;;6.78;5.53;;;23.10;96.40;;;;;;4845143;29;20162;-82
2021/09/04 11:25:53;;;;;;;7.20;5.50;;;23.10;96.40;;;;;;4844339;29;20093;-83
2021/09/04 11:28:53;;;;;;;8.07;5.93;;;23.10;96.30;;;;;;4860602;29;20112;-83
2021/09/04 11:31:19;;;;;;;8.35;6.18;;;23.10;96.40;;;;;;4861028;29;20100;-82
2021/09/04 11:33:53;;;;;;;6.70;5.80;;;23.10;96.30;;;;;;4844470;29;20477;-83
2021/09/04 11:36:47;;;;;;;6.82;5.60;;;23.10;96.40;;;;;;4844364;29;20037;-83
2021/09/04 11:39:13;;;;;;;9.40;6.60;;;23.10;96.40;;;;;;4844996;29;20048;-83
2021/09/04 11:41:45;;;;;;;8.98;6.45;;;23.10;96.40;;;;;;4860952;29;20033;-82
2021/09/04 11:44:11;;;;;;;8.48;5.72;;;23.10;96.40;;;;;;4844256;29;20124;-82
2021/09/04 11:46:37;;;;;;;6.65;5.50;;;23.10;96.40;;;;;;4860747;29;20154;-82
2021/09/04 11:49:02;;;;;;;7.68;6.00;;;23.20;96.40;;;;;;4843921;29;20038;-82
2021/09/04 11:51:28;;;;;;;7.43;5.82;;;23.20;96.50;;;;;;4860685;29;20030;-83
2021/09/04 11:54:01;;;;;;;7.45;5.85;;;23.10;96.40;;;;;;4829350;29;20037;-82
2021/09/04 11:56:30;;;;;;;6.60;5.78;;;23.10;96.40;;;;;;4860836;29;20392;-82
2021/09/04 11:59:06;;;;;;;6.00;5.40;;;23.10;96.50;;;;;;4844167;29;20563;-83
2021/09/04 12:01:32;;;;;;;7.88;5.38;;;23.10;96.50;;;;;;4844207;29;20113;-82
2021/09/04 12:03:58;;;;;;;7.05;6.35;;;23.10;96.50;;;;;;4860484;29;20082;-82
2021/09/04 12:06:24;;;;;;;7.97;5.88;;;23.20;96.50;;;;;;4843893;29;20477;-82
2021/09/04 12:08:50;;;;;;;8.15;5.57;;;23.20;96.50;;;;;;4829100;29;20393;-82
2021/09/04 12:11:16;;;;;;;6.88;5.85;;;23.20;96.60;;;;;;4843792;29;20037;-82
2021/09/04 12:13:43;;;;;;;7.82;5.95;;;23.20;96.50;;;;;;4860407;29;20041;-82
2021/09/04 12:16:14;;;;;;;6.35;5.72;;;23.20;96.60;;;;;;4843903;29;20038;-82
2021/09/04 12:18:42;;;;;;;7.80;6.07;;;23.20;96.50;;;;;;4845095;29;20081;-82
2021/09/04 12:21:23;;;;;;;7.30;5.80;;;23.20;96.50;;;;;;4843760;29;20061;-83
2021/09/04 12:23:51;;;;;;;8.75;5.78;;;23.20;96.50;;;;;;4843780;29;20113;-82
2021/09/04 12:26:17;;;;;;;6.72;5.90;;;23.20;96.50;;;;;;4860323;29;20053;-83
2021/09/04 12:28:43;;;;;;;6.50;5.38;;;23.20;96.50;;;;;;4844103;29;20041;-83
2021/09/04 12:31:25;;;;;;;7.05;5.95;;;23.20;96.50;;;;;;4860336;29;20081;-83
2021/09/04 12:33:51;;;;;;;7.00;5.85;;;23.20;96.60;;;;;;4860439;29;20030;-83